Westerly — VG3832 — position and weather

sailwx.info

Track history (hours):
 
Tides and Currents Weather Stations Pressure Air Temp Water Temp Dewpoint Dewpoint Depression Visibility Wind Speed Wind Dir Waves Ship Positions

Westerly

Last reported at 2017-Nov-04 03:00 UTC. Time now 2017-Nov-21 12:15 UTC.
Position N 50°43' W 127°29'.
Warning: this ship's position is 17 days out of date.

Length 17 m; draft 3 m.

Type: Fishing. MMSI: 316003050.

Date/timePositionNaut miles runAvg speedWind from/ knotsBaromVisibWave heightAir tempDewpointWater temp
2017-Nov-04 03:00N 50°43' W 127°29'4 8.1
2017-Nov-04 02:30N 50°47' W 127°30'4 8.0
2017-Nov-04 02:00N 50°49' W 127°35'3 6.9
2017-Nov-04 01:30N 50°52' W 127°37'4 7.4
2017-Nov-04 01:00N 50°55' W 127°42'3 6.6
2017-Nov-04 00:30N 50°58' W 127°45'4 7.4
2017-Nov-03 23:59N 51°01' W 127°47'32 8.8
2017-Nov-03 20:22N 51°33' W 127°52'410.7
2017-Nov-03 20:00N 51°36' W 127°53'510.4
2017-Nov-03 19:30N 51°41' W 127°56'5 9.8
2017-Nov-03 19:00N 51°46' W 127°57'5 9.5
2017-Nov-03 18:30N 51°51' W 127°57'5 9.3
2017-Nov-03 18:00N 51°55' W 127°57'10 6.6
2017-Nov-03 16:27N 52°05' W 128°04'128 3.0
2017-Nov-01 21:44N 53°51' W 130°02'2 8.3
2017-Nov-01 21:30N 53°52' W 130°05'4 8.0
2017-Nov-01 21:00N 53°54' W 130°10'4 7.7
2017-Nov-01 20:30N 53°58' W 130°12'4 7.9
2017-Nov-01 20:00N 54°02' W 130°14'4 7.9
2017-Nov-01 19:31N 54°05' W 130°17'4 7.6
2017-Nov-01 19:01N 54°09' W 130°20'3 6.3
2017-Nov-01 18:30N 54°12' W 130°19'2 0.1
2017-Nov-01 02:00N 54°14' W 130°18'0 0.0
2017-Nov-01 01:30N 54°14' W 130°18'0 0.0
2017-Nov-01 01:01N 54°14' W 130°18'0 0.0
2017-Nov-01 00:30N 54°14' W 130°18'0 0.0
2017-Nov-01 00:00N 54°14' W 130°18'0 0.0
2017-Oct-31 23:30N 54°14' W 130°18'1 1.7
2017-Oct-31 23:00N 54°13' W 130°17'0 0.0
2017-Oct-31 22:30N 54°13' W 130°17'0 0.1
2017-Oct-31 22:00N 54°13' W 130°17'0 0.0
2017-Oct-31 21:30N 54°13' W 130°17'0 0.0
2017-Oct-31 21:00N 54°13' W 130°17'0 0.0
2017-Oct-31 20:30N 54°13' W 130°17'0 0.0
2017-Oct-31 20:00N 54°13' W 130°17'0 0.0
2017-Oct-31 19:30N 54°13' W 130°17'0 0.0
2017-Oct-31 19:00N 54°13' W 130°17'0 0.0
2017-Oct-31 18:30N 54°13' W 130°17'0 0.0
2017-Oct-31 18:00N 54°13' W 130°17'0 0.0
2017-Oct-31 17:30N 54°13' W 130°17'0 0.0
2017-Oct-31 17:00N 54°13' W 130°17'0 0.0
2017-Oct-31 16:30N 54°13' W 130°17'0 0.0
2017-Oct-31 16:00N 54°13' W 130°17'0 0.0
2017-Oct-31 15:30N 54°13' W 130°17'0 0.0
2017-Oct-31 15:00N 54°13' W 130°17'0 0.0
2017-Oct-31 14:30N 54°13' W 130°17'0 0.0
2017-Oct-31 14:00N 54°13' W 130°17'0 0.0
2017-Oct-31 13:30N 54°13' W 130°17'0 0.0
2017-Oct-31 13:00N 54°13' W 130°17'0 0.0
2017-Oct-31 12:30N 54°13' W 130°17'0 0.0
2017-Oct-31 12:00N 54°13' W 130°17'0 0.0
2017-Oct-31 11:30N 54°13' W 130°17'0 0.0
2017-Oct-31 11:00N 54°13' W 130°17'0 0.0
2017-Oct-31 10:30N 54°13' W 130°17'0 0.0
2017-Oct-31 10:00N 54°13' W 130°17'0 0.0
2017-Oct-31 09:30N 54°13' W 130°17'0 0.0
2017-Oct-31 09:00N 54°13' W 130°17'0 0.0
2017-Oct-31 08:30N 54°13' W 130°17'0 0.0
2017-Oct-31 08:00N 54°13' W 130°17'0 0.0
2017-Oct-31 07:30N 54°13' W 130°17'0 0.0
2017-Oct-31 07:00N 54°13' W 130°17'0 0.0
2017-Oct-31 06:30N 54°13' W 130°17'0 0.0
2017-Oct-31 06:00N 54°13' W 130°17'0 0.0
2017-Oct-31 05:30N 54°13' W 130°17'0 0.0
2017-Oct-31 05:00N 54°13' W 130°17'0 0.0
2017-Oct-31 04:30N 54°13' W 130°17'0 0.0
2017-Oct-31 04:00N 54°13' W 130°17'0 0.0
2017-Oct-31 03:30N 54°13' W 130°17'0 0.0
2017-Oct-31 03:00N 54°13' W 130°17'0 0.0
2017-Oct-31 02:30N 54°13' W 130°17'0 0.0
2017-Oct-31 02:00N 54°13' W 130°17'0 0.0
2017-Oct-31 01:30N 54°13' W 130°17'0 0.0
2017-Oct-31 01:00N 54°13' W 130°17'0 0.0
2017-Oct-31 00:30N 54°13' W 130°17'0 0.0
2017-Oct-31 00:00N 54°13' W 130°17'0 0.0
2017-Oct-30 23:31N 54°13' W 130°17'0 0.0
2017-Oct-30 23:01N 54°13' W 130°17'0 0.0
2017-Oct-30 22:30N 54°13' W 130°17'0 0.0
2017-Oct-30 22:00N 54°13' W 130°17'0 0.0
2017-Oct-30 21:30N 54°13' W 130°17'0 0.0
2017-Oct-30 21:00N 54°13' W 130°17'0 0.0
2017-Oct-30 20:30N 54°13' W 130°17'0 0.0
2017-Oct-30 20:00N 54°13' W 130°17'0 0.0
2017-Oct-30 19:30N 54°13' W 130°17'0 0.0
2017-Oct-30 19:00N 54°13' W 130°17'0 0.0
2017-Oct-30 18:30N 54°13' W 130°17'0 0.0
2017-Oct-30 18:01N 54°13' W 130°17'0 0.0
2017-Oct-30 17:30N 54°13' W 130°17'0 0.0
2017-Oct-30 17:01N 54°13' W 130°17'0 0.0
2017-Oct-30 16:31N 54°13' W 130°17'0 0.0
2017-Oct-30 16:00N 54°13' W 130°17'0 0.0
2017-Oct-30 15:30N 54°13' W 130°17'0 0.0
2017-Oct-30 15:00N 54°13' W 130°17'0 0.0
2017-Oct-30 14:00N 54°13' W 130°17'0 0.0
2017-Oct-30 13:30N 54°13' W 130°17'2 3.3
2017-Oct-30 13:00N 54°12' W 130°20'4 7.1
2017-Oct-30 12:30N 54°13' W 130°26'4 7.0
2017-Oct-30 12:00N 54°14' W 130°32'3 6.8
2017-Oct-30 11:30N 54°15' W 130°37'3 6.7
2017-Oct-30 11:00N 54°16' W 130°43'3 6.3
2017-Oct-30 10:30N 54°17' W 130°48'3 5.8
2017-Oct-30 10:00N 54°18' W 130°52'3 5.2
2017-Oct-30 09:30N 54°18' W 130°57'3 6.1
2017-Oct-30 08:59N 54°18' W 131°02'  
Track history (hours):
 
Tides and Currents Weather Stations Pressure Air Temp Water Temp Dewpoint Dewpoint Depression Visibility Wind Speed Wind Dir Waves Ship Positions

Westerly

Last reported at 2017-Nov-04 03:00 UTC. Time now 2017-Nov-21 12:15 UTC.
Position N 50°43' W 127°29'.
Warning: this ship's position is 17 days out of date.

Length 17 m; draft 3 m.

Type: Fishing. MMSI: 316003050.

Date/timePositionNaut miles runAvg speedWind from/ knotsBaromVisibWave heightAir tempDewpointWater temp
2017-Nov-04 03:00N 50°43' W 127°29'4 8.1
2017-Nov-04 02:30N 50°47' W 127°30'4 8.0
2017-Nov-04 02:00N 50°49' W 127°35'3 6.9
2017-Nov-04 01:30N 50°52' W 127°37'4 7.4
2017-Nov-04 01:00N 50°55' W 127°42'3 6.6
2017-Nov-04 00:30N 50°58' W 127°45'4 7.4
2017-Nov-03 23:59N 51°01' W 127°47'32 8.8
2017-Nov-03 20:22N 51°33' W 127°52'410.7
2017-Nov-03 20:00N 51°36' W 127°53'510.4
2017-Nov-03 19:30N 51°41' W 127°56'5 9.8
2017-Nov-03 19:00N 51°46' W 127°57'5 9.5
2017-Nov-03 18:30N 51°51' W 127°57'5 9.3
2017-Nov-03 18:00N 51°55' W 127°57'10 6.6
2017-Nov-03 16:27N 52°05' W 128°04'128 3.0
2017-Nov-01 21:44N 53°51' W 130°02'2 8.3
2017-Nov-01 21:30N 53°52' W 130°05'4 8.0
2017-Nov-01 21:00N 53°54' W 130°10'4 7.7
2017-Nov-01 20:30N 53°58' W 130°12'4 7.9
2017-Nov-01 20:00N 54°02' W 130°14'4 7.9
2017-Nov-01 19:31N 54°05' W 130°17'4 7.6
2017-Nov-01 19:01N 54°09' W 130°20'3 6.3
2017-Nov-01 18:30N 54°12' W 130°19'2 0.1
2017-Nov-01 02:00N 54°14' W 130°18'0 0.0
2017-Nov-01 01:30N 54°14' W 130°18'0 0.0
2017-Nov-01 01:01N 54°14' W 130°18'0 0.0
2017-Nov-01 00:30N 54°14' W 130°18'0 0.0
2017-Nov-01 00:00N 54°14' W 130°18'0 0.0
2017-Oct-31 23:30N 54°14' W 130°18'1 1.7
2017-Oct-31 23:00N 54°13' W 130°17'0 0.0
2017-Oct-31 22:30N 54°13' W 130°17'0 0.1
2017-Oct-31 22:00N 54°13' W 130°17'0 0.0
2017-Oct-31 21:30N 54°13' W 130°17'0 0.0
2017-Oct-31 21:00N 54°13' W 130°17'0 0.0
2017-Oct-31 20:30N 54°13' W 130°17'0 0.0
2017-Oct-31 20:00N 54°13' W 130°17'0 0.0
2017-Oct-31 19:30N 54°13' W 130°17'0 0.0
2017-Oct-31 19:00N 54°13' W 130°17'0 0.0
2017-Oct-31 18:30N 54°13' W 130°17'0 0.0
2017-Oct-31 18:00N 54°13' W 130°17'0 0.0
2017-Oct-31 17:30N 54°13' W 130°17'0 0.0
2017-Oct-31 17:00N 54°13' W 130°17'0 0.0
2017-Oct-31 16:30N 54°13' W 130°17'0 0.0
2017-Oct-31 16:00N 54°13' W 130°17'0 0.0
2017-Oct-31 15:30N 54°13' W 130°17'0 0.0
2017-Oct-31 15:00N 54°13' W 130°17'0 0.0
2017-Oct-31 14:30N 54°13' W 130°17'0 0.0
2017-Oct-31 14:00N 54°13' W 130°17'0 0.0
2017-Oct-31 13:30N 54°13' W 130°17'0 0.0
2017-Oct-31 13:00N 54°13' W 130°17'0 0.0
2017-Oct-31 12:30N 54°13' W 130°17'0 0.0
2017-Oct-31 12:00N 54°13' W 130°17'0 0.0
2017-Oct-31 11:30N 54°13' W 130°17'0 0.0
2017-Oct-31 11:00N 54°13' W 130°17'0 0.0
2017-Oct-31 10:30N 54°13' W 130°17'0 0.0
2017-Oct-31 10:00N 54°13' W 130°17'0 0.0
2017-Oct-31 09:30N 54°13' W 130°17'0 0.0
2017-Oct-31 09:00N 54°13' W 130°17'0 0.0
2017-Oct-31 08:30N 54°13' W 130°17'0 0.0
2017-Oct-31 08:00N 54°13' W 130°17'0 0.0
2017-Oct-31 07:30N 54°13' W 130°17'0 0.0
2017-Oct-31 07:00N 54°13' W 130°17'0 0.0
2017-Oct-31 06:30N 54°13' W 130°17'0 0.0
2017-Oct-31 06:00N 54°13' W 130°17'0 0.0
2017-Oct-31 05:30N 54°13' W 130°17'0 0.0
2017-Oct-31 05:00N 54°13' W 130°17'0 0.0
2017-Oct-31 04:30N 54°13' W 130°17'0 0.0
2017-Oct-31 04:00N 54°13' W 130°17'0 0.0
2017-Oct-31 03:30N 54°13' W 130°17'0 0.0
2017-Oct-31 03:00N 54°13' W 130°17'0 0.0
2017-Oct-31 02:30N 54°13' W 130°17'0 0.0
2017-Oct-31 02:00N 54°13' W 130°17'0 0.0
2017-Oct-31 01:30N 54°13' W 130°17'0 0.0
2017-Oct-31 01:00N 54°13' W 130°17'0 0.0
2017-Oct-31 00:30N 54°13' W 130°17'0 0.0
2017-Oct-31 00:00N 54°13' W 130°17'0 0.0
2017-Oct-30 23:31N 54°13' W 130°17'0 0.0
2017-Oct-30 23:01N 54°13' W 130°17'0 0.0
2017-Oct-30 22:30N 54°13' W 130°17'0 0.0
2017-Oct-30 22:00N 54°13' W 130°17'0 0.0
2017-Oct-30 21:30N 54°13' W 130°17'0 0.0
2017-Oct-30 21:00N 54°13' W 130°17'0 0.0
2017-Oct-30 20:30N 54°13' W 130°17'0 0.0
2017-Oct-30 20:00N 54°13' W 130°17'0 0.0
2017-Oct-30 19:30N 54°13' W 130°17'0 0.0
2017-Oct-30 19:00N 54°13' W 130°17'0 0.0
2017-Oct-30 18:30N 54°13' W 130°17'0 0.0
2017-Oct-30 18:01N 54°13' W 130°17'0 0.0
2017-Oct-30 17:30N 54°13' W 130°17'0 0.0
2017-Oct-30 17:01N 54°13' W 130°17'0 0.0
2017-Oct-30 16:31N 54°13' W 130°17'0 0.0
2017-Oct-30 16:00N 54°13' W 130°17'0 0.0
2017-Oct-30 15:30N 54°13' W 130°17'0 0.0
2017-Oct-30 15:00N 54°13' W 130°17'0 0.0
2017-Oct-30 14:00N 54°13' W 130°17'0 0.0
2017-Oct-30 13:30N 54°13' W 130°17'2 3.3
2017-Oct-30 13:00N 54°12' W 130°20'4 7.1
2017-Oct-30 12:30N 54°13' W 130°26'4 7.0
2017-Oct-30 12:00N 54°14' W 130°32'3 6.8
2017-Oct-30 11:30N 54°15' W 130°37'3 6.7
2017-Oct-30 11:00N 54°16' W 130°43'3 6.3
2017-Oct-30 10:30N 54°17' W 130°48'3 5.8
2017-Oct-30 10:00N 54°18' W 130°52'3 5.2
2017-Oct-30 09:30N 54°18' W 130°57'3 6.1
2017-Oct-30 08:59N 54°18' W 131°02'  

Dump ship's entire track history